createdAt,value
2018-11-20T00:02:58.876Z,289.85
2018-11-20T00:06:06.544Z,295.18
2018-11-20T00:09:13.443Z,281.55
2018-11-20T00:12:20.353Z,275.45
2018-11-20T00:15:27.280Z,264.93
2018-11-20T00:18:34.177Z,266.27
2018-11-20T00:21:41.051Z,279.70
2018-11-20T00:27:54.964Z,268.90
2018-11-20T00:31:01.846Z,267.00
2018-11-20T00:34:08.741Z,312.05
2018-11-20T00:37:07.265Z,288.50
2018-11-20T00:40:14.178Z,276.37
2018-11-20T00:43:21.076Z,279.15
2018-11-20T00:46:27.964Z,296.60
2018-11-20T00:49:34.865Z,279.20
2018-11-20T00:52:41.767Z,296.12
2018-11-20T00:56:08.082Z,295.33
2018-11-20T00:59:14.973Z,273.37
2018-11-20T01:02:21.855Z,277.02
2018-11-20T01:05:19.513Z,264.07
2018-11-20T01:08:26.440Z,274.18
2018-11-20T01:11:33.348Z,266.73
2018-11-20T01:14:40.225Z,263.65
2018-11-20T01:17:47.138Z,251.55
2018-11-20T01:20:54.031Z,264.60
2018-11-20T01:24:00.913Z,250.03
2018-11-20T01:27:07.832Z,275.37
2018-11-20T01:30:14.721Z,257.27
2018-11-20T01:33:21.613Z,277.22
2018-11-20T01:36:28.529Z,291.20
2018-11-20T01:39:35.394Z,289.30
2018-11-20T01:42:42.302Z,269.75
2018-11-20T01:45:36.675Z,273.50
2018-11-20T01:48:43.576Z,277.75
2018-11-20T01:51:50.465Z,284.15
2018-11-20T01:54:57.356Z,302.32
2018-11-20T01:58:04.260Z,281.57
2018-11-20T02:01:05.504Z,270.00
2018-11-20T02:04:03.995Z,287.27
2018-11-20T02:07:10.804Z,306.87
2018-11-20T02:10:17.710Z,272.17
2018-11-20T02:13:44.026Z,274.27
2018-11-20T02:16:52.279Z,269.90
2018-11-20T02:19:59.190Z,274.15
2018-11-20T02:23:06.062Z,284.43
2018-11-20T02:26:12.983Z,286.02
2018-11-20T02:29:19.889Z,290.50
2018-11-20T02:32:26.770Z,285.57
2018-11-20T02:35:33.670Z,287.00
2018-11-20T02:38:40.552Z,281.98
2018-11-20T02:41:47.451Z,290.60
2018-11-20T02:44:54.369Z,303.45
2018-11-20T02:48:01.244Z,312.98
2018-11-20T02:51:02.361Z,283.07
2018-11-20T02:54:09.237Z,269.17
2018-11-20T02:57:16.152Z,294.75
2018-11-20T03:00:23.048Z,291.40
2018-11-20T03:03:30.008Z,272.70
2018-11-20T03:06:36.851Z,277.43
2018-11-20T03:09:43.743Z,284.02
2018-11-20T03:12:50.635Z,289.17
2018-11-20T03:15:57.570Z,311.32
2018-11-20T03:18:51.598Z,286.98
2018-11-20T03:21:58.502Z,281.10
2018-11-20T03:25:05.373Z,283.55
2018-11-20T03:28:12.282Z,278.73
2018-11-20T03:31:20.209Z,281.98
2018-11-20T03:34:27.119Z,280.73
2018-11-20T03:37:34.022Z,290.10
2018-11-20T03:40:32.303Z,298.62
2018-11-20T03:43:39.211Z,293.93
2018-11-20T03:46:46.096Z,313.95
2018-11-20T03:49:52.996Z,288.05
2018-11-20T03:52:59.907Z,291.32
2018-11-20T03:56:06.783Z,299.37
2018-11-20T03:59:13.701Z,321.70
2018-11-20T04:02:20.569Z,280.15
2018-11-20T04:05:23.224Z,273.38
2018-11-20T04:08:30.138Z,284.45
2018-11-20T04:11:37.028Z,288.10
2018-11-20T04:14:43.993Z,307.07
2018-11-20T04:17:50.955Z,307.43
2018-11-20T04:20:57.785Z,297.12
2018-11-20T04:24:04.668Z,289.35
2018-11-20T04:27:11.569Z,280.95
2018-11-20T04:30:27.915Z,305.25
2018-11-20T04:33:54.193Z,301.67
2018-11-20T04:37:05.789Z,280.65
2018-11-20T04:40:12.701Z,297.48
2018-11-20T04:43:19.585Z,299.42
2018-11-20T04:46:26.490Z,285.20
2018-11-20T04:49:20.563Z,279.60
2018-11-20T04:52:27.457Z,267.10
2018-11-20T04:55:34.338Z,252.60
2018-11-20T04:58:41.251Z,272.35
2018-11-20T05:01:48.187Z,255.25
2018-11-20T05:04:55.085Z,249.70
2018-11-20T05:07:56.687Z,257.25
2018-11-20T05:14:03.551Z,240.10
2018-11-20T05:17:03.866Z,254.15
2018-11-20T05:20:04.156Z,267.95
2018-11-20T05:26:09.200Z,251.92
2018-11-20T05:29:09.620Z,282.32
2018-11-20T05:35:14.966Z,288.32
2018-11-20T05:38:15.285Z,270.50
2018-11-20T05:41:09.929Z,303.05
2018-11-20T05:44:16.335Z,263.65
2018-11-20T05:47:19.701Z,271.43
2018-11-20T05:50:21.029Z,279.27
2018-11-20T05:53:08.371Z,277.87
2018-11-20T05:56:09.932Z,312.68
2018-11-20T06:02:13.835Z,278.55
2018-11-20T06:05:07.950Z,296.70
2018-11-20T06:08:08.027Z,273.20
2018-11-20T06:11:07.433Z,292.50
2018-11-20T06:14:07.030Z,296.77
2018-11-20T06:17:06.710Z,284.00
2018-11-20T06:20:09.659Z,306.10
2018-11-20T06:23:02.669Z,287.52
2018-11-20T06:25:54.175Z,315.00
2018-11-20T06:28:54.325Z,289.07
2018-11-20T06:31:54.511Z,309.95
2018-11-20T06:34:54.766Z,297.88
2018-11-20T06:37:58.505Z,316.57
2018-11-20T06:41:05.394Z,294.50
2018-11-20T06:44:12.279Z,318.97
2018-11-20T06:47:19.230Z,296.55
2018-11-20T06:50:27.263Z,303.00
2018-11-20T06:53:34.210Z,330.62
2018-11-20T06:56:41.052Z,325.85
2018-11-20T06:59:47.953Z,357.65
2018-11-20T07:02:54.829Z,344.95
2018-11-20T07:06:01.785Z,357.32
2018-11-20T07:09:08.692Z,326.10
2018-11-20T07:12:15.626Z,353.83
2018-11-20T07:15:22.654Z,338.25
2018-11-20T07:18:29.366Z,342.93
2018-11-20T07:21:36.286Z,360.80
2018-11-20T07:24:43.266Z,354.63
2018-11-20T07:27:50.106Z,332.70
2018-11-20T07:30:57.177Z,343.15
2018-11-20T07:34:03.890Z,352.52
2018-11-20T07:37:10.977Z,338.23
2018-11-20T07:40:17.672Z,389.20
2018-11-20T07:43:24.584Z,334.17
2018-11-20T07:46:31.486Z,346.55
2018-11-20T07:49:38.353Z,347.00
2018-11-20T07:52:45.260Z,356.65
2018-11-20T07:55:52.309Z,347.25
2018-11-20T07:58:59.048Z,354.15
2018-11-20T08:02:06.013Z,327.15
2018-11-20T08:05:12.840Z,361.25
2018-11-20T08:08:19.754Z,362.25
2018-11-20T08:14:48.300Z,357.65
2018-11-20T08:17:46.965Z,372.12
2018-11-20T08:20:53.850Z,354.25
2018-11-20T08:24:00.762Z,351.40
2018-11-20T08:27:07.657Z,371.52
2018-11-20T08:30:04.806Z,360.27
2018-11-20T08:33:11.706Z,357.15
2018-11-20T08:36:18.587Z,361.05
2018-11-20T08:39:26.720Z,370.97
2018-11-20T08:42:33.598Z,350.38
2018-11-20T08:45:40.503Z,349.98
2018-11-20T08:48:47.402Z,345.50
2018-11-20T08:51:54.293Z,363.18
2018-11-20T08:55:01.197Z,347.65
2018-11-20T08:58:08.082Z,365.65
2018-11-20T09:01:14.984Z,336.35
2018-11-20T09:04:21.886Z,343.55
2018-11-20T09:07:21.526Z,333.02
2018-11-20T09:10:25.125Z,331.68
2018-11-20T09:13:31.962Z,339.30
2018-11-20T09:16:38.866Z,326.20
2018-11-20T09:19:45.787Z,340.48
2018-11-20T09:22:42.086Z,392.27
2018-11-20T09:25:49.055Z,345.30
2018-11-20T09:28:55.869Z,345.73
2018-11-20T09:32:02.763Z,352.68
2018-11-20T09:35:09.807Z,391.47
2018-11-20T09:38:04.434Z,394.93
2018-11-20T09:41:11.338Z,379.90
2018-11-20T09:44:37.611Z,399.65
2018-11-20T09:47:33.694Z,419.62
2018-11-20T09:50:40.569Z,391.93
2018-11-20T09:53:47.462Z,365.20
2018-11-20T09:56:54.392Z,394.48
2018-11-20T10:00:01.360Z,377.85
2018-11-20T10:03:08.182Z,382.32
2018-11-20T10:06:15.088Z,381.25
2018-11-20T10:09:21.986Z,411.73
2018-11-20T10:12:28.879Z,391.68
2018-11-20T10:15:35.786Z,360.48
2018-11-20T10:18:42.656Z,369.57
2018-11-20T10:21:49.574Z,392.20
2018-11-20T10:24:56.520Z,374.23
2018-11-20T10:28:03.413Z,434.52
2018-11-20T10:31:10.299Z,361.57
2018-11-20T10:34:09.143Z,349.73
2018-11-20T10:37:16.034Z,388.80
2018-11-20T10:40:22.977Z,430.20
2018-11-20T10:43:29.826Z,383.07
2018-11-20T10:46:36.783Z,397.75
2018-11-20T10:49:43.607Z,358.80
2018-11-20T10:52:50.514Z,360.90
2018-11-20T10:55:57.384Z,395.07
2018-11-20T10:59:04.292Z,356.60
2018-11-20T11:02:11.192Z,346.15
2018-11-20T11:05:18.070Z,335.40
2018-11-20T11:08:24.980Z,336.92
2018-11-20T11:11:31.979Z,346.90
2018-11-20T11:14:38.886Z,340.87
2018-11-20T11:17:45.692Z,375.87
2018-11-20T11:20:52.658Z,346.62
2018-11-20T11:23:59.502Z,349.35
2018-11-20T11:27:06.380Z,324.37
2018-11-20T11:30:13.278Z,349.90
2018-11-20T11:33:24.260Z,351.67
2018-11-20T11:36:27.066Z,359.23
2018-11-20T11:39:30.859Z,400.45
2018-11-20T11:42:37.730Z,365.73
2018-11-20T11:45:44.633Z,378.73
2018-11-20T11:48:51.501Z,409.45
2018-11-20T11:51:58.424Z,380.12
2018-11-20T11:55:05.370Z,385.52
2018-11-20T11:58:12.189Z,413.68
2018-11-20T12:01:19.101Z,381.35
2018-11-20T12:04:13.912Z,407.47
2018-11-20T12:07:20.812Z,409.15
2018-11-20T12:10:27.758Z,399.37
2018-11-20T12:13:34.649Z,347.93
2018-11-20T12:16:41.556Z,374.50
2018-11-20T12:19:48.416Z,345.07
2018-11-20T12:22:55.326Z,377.93
2018-11-20T12:26:02.202Z,377.00
2018-11-20T12:29:09.097Z,353.25
2018-11-20T12:32:16.030Z,313.90
2018-11-20T12:35:33.180Z,346.57
2018-11-20T12:41:31.771Z,301.20
2018-11-20T12:44:38.676Z,280.52
2018-11-20T12:47:45.559Z,293.65
2018-11-20T12:50:52.453Z,298.70
2018-11-20T12:53:59.726Z,282.77
2018-11-20T12:57:06.243Z,277.00
2018-11-20T13:00:13.141Z,299.85
2018-11-20T13:03:20.070Z,308.30
2018-11-20T13:06:26.937Z,329.57
2018-11-20T13:09:33.909Z,348.93
2018-11-20T13:12:40.781Z,296.65
2018-11-20T13:15:49.420Z,309.02
2018-11-20T13:18:54.582Z,290.18
2018-11-20T13:22:01.484Z,295.35
2018-11-20T13:25:09.533Z,320.33
2018-11-20T13:28:15.265Z,300.22
2018-11-20T13:31:22.167Z,303.25
2018-11-20T13:34:29.175Z,317.57
2018-11-20T13:37:37.492Z,308.70
2018-11-20T13:41:02.251Z,311.87
2018-11-20T13:44:09.140Z,291.42
2018-11-20T13:47:16.039Z,298.83
2018-11-20T13:50:22.962Z,303.00
2018-11-20T13:53:31.583Z,298.75
2018-11-20T13:56:36.758Z,289.63
2018-11-20T13:59:43.658Z,297.67
2018-11-20T14:02:50.550Z,281.40
2018-11-20T14:05:57.465Z,280.92
2018-11-20T14:09:04.341Z,297.82
2018-11-20T14:12:11.245Z,300.13
2018-11-20T14:15:18.120Z,276.50
2018-11-20T14:18:25.123Z,299.92
2018-11-20T14:21:32.056Z,275.05
2018-11-20T14:24:38.943Z,276.73
2018-11-20T14:27:45.857Z,300.85
2018-11-20T14:30:52.730Z,287.30
2018-11-20T14:33:59.639Z,311.70
2018-11-20T14:37:06.545Z,302.02
2018-11-20T14:40:13.429Z,284.75
2018-11-20T14:43:20.323Z,295.05
2018-11-20T14:46:27.220Z,293.20
2018-11-20T14:49:40.775Z,293.00
2018-11-20T14:52:41.017Z,318.73
2018-11-20T14:55:47.910Z,293.02
2018-11-20T14:58:54.841Z,295.27
2018-11-20T15:02:01.722Z,291.80
2018-11-20T15:05:08.620Z,332.90
2018-11-20T15:08:15.526Z,330.00
2018-11-20T15:11:22.394Z,314.05
2018-11-20T15:14:25.041Z,313.43
2018-11-20T15:17:31.912Z,310.15
2018-11-20T15:20:38.829Z,285.60
2018-11-20T15:23:45.715Z,316.82
2018-11-20T15:26:52.117Z,285.88
2018-11-20T15:29:47.723Z,280.57
2018-11-20T15:32:54.670Z,284.50
2018-11-20T15:36:01.573Z,294.57
2018-11-20T15:39:08.457Z,280.83
2018-11-20T15:42:15.376Z,284.30
2018-11-20T15:45:22.254Z,273.23
2018-11-20T15:48:29.182Z,282.20
2018-11-20T15:51:36.117Z,276.77
2018-11-20T15:54:42.997Z,279.82
2018-11-20T15:57:49.895Z,298.95
2018-11-20T16:00:56.776Z,282.48
2018-11-20T16:04:03.705Z,294.37
2018-11-20T16:07:10.629Z,283.65
2018-11-20T16:10:17.510Z,291.12
2018-11-20T16:13:24.408Z,263.00
2018-11-20T16:16:31.319Z,291.10
2018-11-20T16:19:38.201Z,273.43
2018-11-20T16:22:45.164Z,272.58
2018-11-20T16:25:52.040Z,275.05
2018-11-20T16:28:58.945Z,282.15
2018-11-20T16:32:05.830Z,273.23
2018-11-20T16:35:12.746Z,293.70
2018-11-20T16:38:19.634Z,279.65
2018-11-20T16:41:26.540Z,298.73
2018-11-20T16:44:33.449Z,327.90
2018-11-20T16:47:40.325Z,293.27
2018-11-20T16:50:27.843Z,291.12
2018-11-20T16:53:34.742Z,279.30
2018-11-20T16:56:41.648Z,264.40
2018-11-20T16:59:48.544Z,280.73
2018-11-20T17:02:55.428Z,295.80
2018-11-20T17:06:02.334Z,306.82
2018-11-20T17:09:09.252Z,301.90
2018-11-20T17:12:16.130Z,292.98
2018-11-20T17:15:23.241Z,289.12
2018-11-20T17:18:30.117Z,291.40
2018-11-20T17:21:37.021Z,300.87
2018-11-20T17:24:43.900Z,295.57
2018-11-20T17:27:50.796Z,311.70
2018-11-20T17:30:57.717Z,288.95
2018-11-20T17:34:04.589Z,304.20
2018-11-20T17:37:11.512Z,295.63
2018-11-20T17:40:20.910Z,277.93
2018-11-20T17:43:25.288Z,274.95
2018-11-20T17:46:32.182Z,294.82
2018-11-20T17:49:39.051Z,280.52
2018-11-20T17:52:45.961Z,307.32
2018-11-20T17:55:52.866Z,283.27
2018-11-20T17:58:59.769Z,285.40
2018-11-20T18:02:06.669Z,283.00
2018-11-20T18:05:13.643Z,278.70
2018-11-20T18:08:20.540Z,298.95
2018-11-20T18:11:27.477Z,301.00
2018-11-20T18:14:34.420Z,299.40
2018-11-20T18:17:41.348Z,300.60
2018-11-20T18:20:48.297Z,302.85
2018-11-20T18:23:55.199Z,285.20
2018-11-20T18:27:02.081Z,309.77
2018-11-20T18:30:08.981Z,287.72
2018-11-20T18:33:15.868Z,313.90
2018-11-20T18:36:22.771Z,313.25
2018-11-20T18:39:29.668Z,295.25
2018-11-20T18:42:36.861Z,331.05
2018-11-20T18:45:43.763Z,291.17
2018-11-20T18:48:50.651Z,328.32
2018-11-20T18:51:57.558Z,290.15
2018-11-20T18:55:04.462Z,294.62
2018-11-20T18:58:11.346Z,311.25
2018-11-20T19:01:18.245Z,293.82
2018-11-20T19:04:25.129Z,287.00
2018-11-20T19:07:32.028Z,295.95
2018-11-20T19:12:50.540Z,333.10
2018-11-20T19:15:51.157Z,295.77
2018-11-20T19:18:47.735Z,290.87
2018-11-20T19:21:48.770Z,289.80
2018-11-20T19:27:52.631Z,301.77
2018-11-20T19:30:53.918Z,286.45
2018-11-20T19:36:59.675Z,284.25
2018-11-20T19:39:59.969Z,294.48
2018-11-20T19:42:53.347Z,273.85
2018-11-20T19:45:50.845Z,313.70
2018-11-20T19:48:51.997Z,275.48
2018-11-20T19:55:02.300Z,292.30
2018-11-20T20:01:08.016Z,292.02
2018-11-20T20:04:11.388Z,311.82
2018-11-20T20:07:01.946Z,301.07
2018-11-20T20:10:03.231Z,303.30
2018-11-20T20:13:03.173Z,310.70
2018-11-20T20:16:04.425Z,278.12
2018-11-20T20:19:10.672Z,284.15
2018-11-20T20:25:18.283Z,285.65
2018-11-20T20:28:24.520Z,292.00
2018-11-20T20:31:25.868Z,273.77
2018-11-20T20:34:28.702Z,305.62
2018-11-20T20:40:34.396Z,282.95
2018-11-20T20:46:57.355Z,311.30
2018-11-20T20:49:58.815Z,289.72
2018-11-20T20:52:58.987Z,310.90
2018-11-20T20:55:52.307Z,300.43
2018-11-20T20:58:52.059Z,291.07
2018-11-20T21:01:52.342Z,303.85
2018-11-20T21:04:55.234Z,282.15
2018-11-20T21:07:54.842Z,298.50
2018-11-20T21:10:51.129Z,292.45
2018-11-20T21:13:39.783Z,285.82
2018-11-20T21:16:22.831Z,291.08
2018-11-20T21:19:22.035Z,286.15
2018-11-20T21:22:18.210Z,274.33
2018-11-20T21:25:06.531Z,311.40
2018-11-20T21:27:42.177Z,290.82
2018-11-20T21:30:32.699Z,286.67
2018-11-20T21:33:18.657Z,287.55
2018-11-20T21:36:04.658Z,299.77
2018-11-20T21:38:50.589Z,299.30
2018-11-20T21:41:36.595Z,299.55
2018-11-20T21:44:24.090Z,324.23
2018-11-20T21:47:29.584Z,295.18
2018-11-20T21:50:15.765Z,312.25
2018-11-20T21:53:04.603Z,319.25
2018-11-20T21:55:50.825Z,291.82
2018-11-20T21:58:36.876Z,289.90
2018-11-20T22:01:41.288Z,291.17
2018-11-20T22:04:27.289Z,318.75
2018-11-20T22:07:23.569Z,294.57
2018-11-20T22:10:09.259Z,289.12
2018-11-20T22:12:55.349Z,289.65
2018-11-20T22:15:45.639Z,302.13
2018-11-20T22:18:31.528Z,297.33
2018-11-20T22:21:06.851Z,303.45
2018-11-20T22:23:52.682Z,347.00
2018-11-20T22:26:38.627Z,304.07
2018-11-20T22:29:16.478Z,299.40
2018-11-20T22:32:18.735Z,299.15
2018-11-20T22:35:06.245Z,299.10
2018-11-20T22:37:44.146Z,319.33
2018-11-20T22:40:30.222Z,302.27
2018-11-20T22:43:26.489Z,296.45
2018-11-20T22:46:12.172Z,298.25
2018-11-20T22:49:05.339Z,315.10
2018-11-20T22:52:10.829Z,300.22
2018-11-20T22:55:16.139Z,303.30
2018-11-20T22:58:08.849Z,316.20
2018-11-20T23:01:08.909Z,309.30
2018-11-20T23:04:05.020Z,321.30
2018-11-20T23:06:54.520Z,298.35
2018-11-20T23:09:22.804Z,296.52
2018-11-20T23:11:51.125Z,321.93
2018-11-20T23:14:19.427Z,298.93
2018-11-20T23:16:47.751Z,314.60
2018-11-20T23:19:16.055Z,332.73
2018-11-20T23:21:44.376Z,306.47
2018-11-20T23:24:14.100Z,302.98
2018-11-20T23:26:42.511Z,326.18
2018-11-20T23:29:10.810Z,311.98
2018-11-20T23:31:39.183Z,308.30
2018-11-20T23:34:07.639Z,326.40
2018-11-20T23:36:36.082Z,347.37
2018-11-20T23:39:06.975Z,303.10
2018-11-20T23:41:35.360Z,312.55
2018-11-20T23:44:03.700Z,328.25
2018-11-20T23:46:32.036Z,338.43
2018-11-20T23:49:00.369Z,308.80
2018-11-20T23:51:28.665Z,308.77
2018-11-20T23:53:56.952Z,296.25
2018-11-20T23:56:25.490Z,328.60
2018-11-20T23:58:53.889Z,332.05
